New River MCAS /H/ /Mccutcheon Fld/ Airport
KNCA : now visible

Airfield :











YOU CAN JOIN US ON...

 
LOGIN :

Register | Disclaimer

   EN    FR    IT 

 









Legend :    VFR   Marginal VFR   IFR   Intensive IFR   Very Intensive IFR
Visi :
Ceiling :
>= 8 km
>= 3000ft
5 to 8 km
1000 to 3000 ft
1500m to 5 km
500 to 1000 ft
800 to 1500m
200 to 500 ft
< 800m
< 200 ft
Symbols :   Thunderstorms  Fog  Heavy snow  Heavy precipitations  Wind > 20 kt






- Airport Elevation : 26 ft


KNCA - New River MCAS /H/ /Mccutcheon Fld/

CURRENT METAR :
  • 101256Z 30009KT 10SM SCT150 SCT200 14/01 A2972 RMK AO2 SLP066 T01440006

EXPIRED METARs :
  • 101156Z 24003KT 10SM SCT150 BKN200 12/03 A2969 RMK AO2 SLP057 70003 T01220033 10194 20117 53010
  • 101056Z 32004KT 10SM CLR 12/01 A2968 RMK AO2 SLP053 T01220006

TAF TAF KNCA
Valid from the 10 at 09:00 until the 11 at 09:00 UTC


1009/1109 34014KT 9999 SCT120 520009 520903 541204 521609 522509 523406 QNH2965INS
BECMG 1012/1014 33018G30KT SCT060 530006 550603 530909 531809 532709 533604 QNH2968INS
FM101800 33018G30KT 9999 SKC 530009 530909 531809 532709 533604 QNH2975INS
BECMG 1022/1100 34009KT 521809 522709 523604 QNH2980INS T18/1018Z T06/1109Z



MET'MAP, your aeronautical weather chart ! - Copyright ORBIFLY December 2007 - Disclaimer

ORBIFLY MET'MAP TEAM :

Programming & Development : Alexandra Zaïnal
Concept & original design : Baudouin d'Aumeries
Assistance for programming : Marc-Olivier Méhu
Technical & hardware support : Manuel Goepfert

Contact : metmap@orbifly.com




SOURCES & CREDITS :

   NOAA       Earth
Advisory